createdAt,value
2023-01-25T00:02:20.430Z,19.38
2023-01-25T00:04:49.489Z,19.73
2023-01-25T00:07:17.171Z,20.70
2023-01-25T00:09:44.808Z,20.73
2023-01-25T00:12:12.436Z,21.27
2023-01-25T00:14:40.096Z,19.80
2023-01-25T00:17:07.771Z,21.23
2023-01-25T00:19:35.480Z,21.65
2023-01-25T00:22:04.482Z,21.85
2023-01-25T00:24:32.129Z,22.05
2023-01-25T00:26:59.892Z,21.60
2023-01-25T00:29:27.578Z,20.15
2023-01-25T00:32:03.326Z,20.40
2023-01-25T00:34:47.632Z,19.98
2023-01-25T00:37:24.772Z,18.30
2023-01-25T00:39:52.500Z,18.92
2023-01-25T00:42:21.237Z,20.77
2023-01-25T00:44:49.750Z,20.35
2023-01-25T00:47:17.736Z,20.35
2023-01-25T00:49:46.506Z,20.05
2023-01-25T00:52:14.568Z,21.45
2023-01-25T00:54:43.652Z,22.45
2023-01-25T00:57:11.524Z,22.15
2023-01-25T00:59:39.169Z,22.33
2023-01-25T01:02:06.887Z,23.25
2023-01-25T01:04:34.589Z,21.83
2023-01-25T01:07:02.337Z,18.92
2023-01-25T01:09:30.171Z,21.15
2023-01-25T01:11:59.211Z,21.80
2023-01-25T01:14:29.797Z,23.50
2023-01-25T01:16:58.133Z,23.25
2023-01-25T01:19:26.012Z,22.23
2023-01-25T01:21:53.727Z,21.80
2023-01-25T01:24:21.456Z,22.83
2023-01-25T01:26:49.148Z,22.85
2023-01-25T01:29:18.108Z,22.23
2023-01-25T01:31:45.817Z,23.65
2023-01-25T01:34:15.066Z,21.38
2023-01-25T01:36:42.774Z,23.90
2023-01-25T01:39:10.559Z,24.88
2023-01-25T01:41:38.732Z,22.00
2023-01-25T01:44:06.658Z,23.73
2023-01-25T01:46:37.594Z,23.30
2023-01-25T01:49:11.499Z,22.85
2023-01-25T01:51:49.623Z,21.60
2023-01-25T01:54:24.070Z,23.33
2023-01-25T01:56:56.727Z,23.37
2023-01-25T01:59:29.316Z,21.75
2023-01-25T02:01:58.366Z,21.42
2023-01-25T02:04:28.665Z,21.55
2023-01-25T02:07:01.928Z,23.55
2023-01-25T02:09:30.706Z,21.92
2023-01-25T02:12:00.040Z,21.23
2023-01-25T02:14:30.179Z,23.58
2023-01-25T02:16:59.511Z,22.02
2023-01-25T02:19:39.354Z,21.27
2023-01-25T02:22:13.348Z,21.00
2023-01-25T02:24:46.733Z,22.08
2023-01-25T02:27:15.698Z,23.15
2023-01-25T02:29:47.632Z,22.00
2023-01-25T02:32:15.306Z,23.40
2023-01-25T02:34:45.668Z,22.35
2023-01-25T02:37:15.515Z,21.67
2023-01-25T02:39:43.625Z,22.88
2023-01-25T02:42:11.301Z,21.60
2023-01-25T02:44:40.384Z,24.38
2023-01-25T02:47:07.984Z,20.40
2023-01-25T02:49:36.664Z,21.38
2023-01-25T02:52:06.264Z,18.88
2023-01-25T02:54:33.954Z,19.30
2023-01-25T02:57:01.664Z,19.77
2023-01-25T02:59:29.329Z,19.58
2023-01-25T03:01:58.898Z,19.30
2023-01-25T03:04:26.598Z,20.52
2023-01-25T03:06:54.278Z,19.40
2023-01-25T03:09:21.911Z,18.70
2023-01-25T03:11:51.565Z,18.92
2023-01-25T03:14:19.203Z,20.48
2023-01-25T03:16:46.875Z,19.55
2023-01-25T03:19:15.887Z,20.20
2023-01-25T03:21:43.507Z,18.02
2023-01-25T03:24:12.116Z,21.30
2023-01-25T03:26:57.036Z,19.73
2023-01-25T03:29:24.788Z,19.63
2023-01-25T03:31:53.031Z,20.45
2023-01-25T03:34:22.176Z,18.75
2023-01-25T03:36:51.468Z,18.85
2023-01-25T03:39:25.987Z,19.75
2023-01-25T03:41:53.641Z,17.63
2023-01-25T03:44:21.254Z,18.63
2023-01-25T03:46:50.913Z,17.73
2023-01-25T03:49:24.573Z,17.02
2023-01-25T03:51:53.644Z,17.40
2023-01-25T03:54:21.358Z,17.23
2023-01-25T03:56:49.027Z,15.80
2023-01-25T03:59:16.707Z,17.10
2023-01-25T04:01:44.375Z,16.23
2023-01-25T04:04:12.515Z,16.55
2023-01-25T04:06:40.211Z,17.10
2023-01-25T04:09:09.621Z,15.90
2023-01-25T04:11:37.293Z,17.15
2023-01-25T04:14:04.965Z,16.98
2023-01-25T04:16:32.647Z,16.25
2023-01-25T04:19:00.276Z,17.20
2023-01-25T04:21:28.000Z,16.35
2023-01-25T04:23:55.788Z,16.33
2023-01-25T04:26:25.368Z,17.00
2023-01-25T04:28:55.775Z,16.70
2023-01-25T04:31:23.498Z,17.88
2023-01-25T04:33:51.460Z,17.35
2023-01-25T04:36:19.157Z,17.83
2023-01-25T04:38:46.811Z,16.83
2023-01-25T04:41:14.467Z,17.48
2023-01-25T04:43:49.119Z,18.17
2023-01-25T04:46:19.650Z,17.25
2023-01-25T04:48:47.453Z,16.90
2023-01-25T04:51:18.242Z,18.20
2023-01-25T04:53:48.991Z,18.92
2023-01-25T04:56:16.635Z,18.15
2023-01-25T04:58:44.466Z,17.33
2023-01-25T05:01:13.825Z,18.55
2023-01-25T05:03:41.567Z,16.30
2023-01-25T05:06:09.319Z,17.80
2023-01-25T05:08:39.776Z,17.05
2023-01-25T05:11:10.345Z,18.73
2023-01-25T05:13:38.064Z,16.67
2023-01-25T05:16:09.823Z,17.00
2023-01-25T05:18:47.946Z,16.80
2023-01-25T05:21:30.626Z,15.55
2023-01-25T05:23:58.480Z,16.27
2023-01-25T05:26:45.111Z,15.73
2023-01-25T05:29:12.946Z,16.17
2023-01-25T05:31:40.728Z,16.17
2023-01-25T05:34:10.741Z,15.68
2023-01-25T05:36:41.111Z,14.85
2023-01-25T05:39:09.109Z,16.70
2023-01-25T05:41:36.957Z,16.83
2023-01-25T05:44:05.420Z,15.00
2023-01-25T05:46:33.062Z,15.57
2023-01-25T05:49:00.719Z,14.77
2023-01-25T05:51:29.731Z,15.02
2023-01-25T05:53:57.568Z,15.55
2023-01-25T05:56:25.575Z,15.65
2023-01-25T05:58:56.470Z,15.23
2023-01-25T06:01:25.121Z,15.65
2023-01-25T06:03:52.969Z,16.13
2023-01-25T06:06:21.421Z,16.63
2023-01-25T06:08:50.933Z,15.90
2023-01-25T06:11:20.690Z,17.00
2023-01-25T06:13:48.920Z,15.27
2023-01-25T06:16:17.054Z,16.45
2023-01-25T06:18:48.147Z,16.63
2023-01-25T06:21:18.771Z,16.23
2023-01-25T06:23:46.580Z,16.23
2023-01-25T06:26:16.491Z,16.98
2023-01-25T06:28:44.390Z,16.85
2023-01-25T06:31:15.077Z,16.45
2023-01-25T06:33:49.143Z,17.02
2023-01-25T06:36:20.429Z,16.85
2023-01-25T06:38:51.006Z,17.40
2023-01-25T06:41:21.787Z,17.60
2023-01-25T06:43:52.215Z,18.50
2023-01-25T06:46:21.086Z,16.70
2023-01-25T06:48:50.184Z,17.40
2023-01-25T06:51:18.033Z,16.48
2023-01-25T06:53:47.301Z,16.95
2023-01-25T06:56:19.308Z,15.52
2023-01-25T06:58:49.253Z,15.63
2023-01-25T07:01:19.809Z,14.77
2023-01-25T07:03:49.589Z,14.55
2023-01-25T07:06:17.358Z,14.00
2023-01-25T07:08:45.083Z,15.60
2023-01-25T07:11:14.147Z,14.98
2023-01-25T07:13:43.075Z,14.80
2023-01-25T07:16:14.997Z,15.88
2023-01-25T07:18:43.188Z,14.68
2023-01-25T07:21:13.804Z,15.68
2023-01-25T07:23:41.833Z,14.43
2023-01-25T07:26:18.894Z,16.55
2023-01-25T07:28:49.561Z,15.32
2023-01-25T07:31:19.693Z,15.20
2023-01-25T07:33:49.619Z,15.00
2023-01-25T07:36:17.789Z,15.88
2023-01-25T07:38:45.529Z,15.88
2023-01-25T07:41:13.294Z,14.98
2023-01-25T07:43:41.033Z,15.85
2023-01-25T07:46:11.269Z,15.32
2023-01-25T07:48:41.666Z,15.35
2023-01-25T07:51:22.582Z,15.38
2023-01-25T07:53:52.306Z,14.38
2023-01-25T07:56:21.318Z,15.35
2023-01-25T07:58:49.758Z,15.38
2023-01-25T08:01:19.885Z,14.98
2023-01-25T08:03:49.652Z,13.18
2023-01-25T08:06:18.565Z,14.02
2023-01-25T08:08:49.623Z,15.57
2023-01-25T08:11:21.596Z,16.27
2023-01-25T08:13:50.006Z,16.10
2023-01-25T08:16:20.027Z,14.00
2023-01-25T08:18:50.408Z,12.27
2023-01-25T08:21:21.498Z,12.63
2023-01-25T08:23:49.204Z,15.15
2023-01-25T08:26:18.264Z,31.98
2023-01-25T08:28:46.291Z,12.77
2023-01-25T08:31:16.580Z,11.95
2023-01-25T08:33:46.698Z,12.40
2023-01-25T08:36:16.642Z,11.68
2023-01-25T08:38:44.356Z,12.00
2023-01-25T08:41:14.283Z,12.70
2023-01-25T08:43:42.555Z,12.68
2023-01-25T08:46:10.371Z,18.80
2023-01-25T08:48:38.402Z,14.38
2023-01-25T08:51:08.732Z,26.73
2023-01-25T08:53:37.861Z,12.65
2023-01-25T08:56:06.876Z,12.90
2023-01-25T08:58:38.259Z,13.15
2023-01-25T09:01:08.859Z,12.63
2023-01-25T09:03:37.824Z,16.52
2023-01-25T09:06:06.072Z,16.38
2023-01-25T09:08:33.922Z,13.73
2023-01-25T09:11:03.816Z,12.88
2023-01-25T09:13:35.045Z,13.65
2023-01-25T09:16:04.125Z,13.95
2023-01-25T09:18:32.569Z,13.73
2023-01-25T09:21:00.303Z,13.07
2023-01-25T09:23:28.034Z,13.32
2023-01-25T09:25:59.145Z,13.80
2023-01-25T09:28:29.976Z,13.18
2023-01-25T09:31:18.742Z,14.05
2023-01-25T09:33:45.602Z,13.55
2023-01-25T09:36:14.915Z,14.10
2023-01-25T09:38:43.629Z,13.55
2023-01-25T09:41:23.021Z,13.38
2023-01-25T09:44:16.919Z,14.43
2023-01-25T09:46:48.945Z,14.27
2023-01-25T09:49:51.861Z,14.75
2023-01-25T09:52:35.875Z,15.30
2023-01-25T09:55:04.070Z,14.45
2023-01-25T09:57:35.640Z,15.15
2023-01-25T10:00:14.584Z,14.82
2023-01-25T10:02:51.416Z,14.20
2023-01-25T10:05:21.735Z,14.95
2023-01-25T10:07:58.361Z,14.27
2023-01-25T10:10:33.894Z,13.35
2023-01-25T10:13:03.049Z,13.68
2023-01-25T10:15:38.465Z,13.55
2023-01-25T10:20:48.737Z,12.60
2023-01-25T10:23:34.114Z,13.02
2023-01-25T10:26:05.937Z,12.40
2023-01-25T10:28:43.545Z,13.25
2023-01-25T10:31:19.501Z,13.98
2023-01-25T10:33:49.566Z,14.05
2023-01-25T10:36:21.460Z,14.88
2023-01-25T10:38:52.849Z,13.75
2023-01-25T10:41:27.038Z,13.75
2023-01-25T10:44:20.006Z,13.55
2023-01-25T10:46:57.360Z,13.82
2023-01-25T10:49:30.067Z,13.13
2023-01-25T10:51:57.824Z,12.63
2023-01-25T10:54:29.357Z,11.80
2023-01-25T10:57:00.399Z,10.88
2023-01-25T10:59:29.902Z,12.50
2023-01-25T11:02:40.559Z,11.82
2023-01-25T11:05:32.244Z,13.48
2023-01-25T11:08:16.023Z,12.95
2023-01-25T11:10:46.447Z,13.52
2023-01-25T11:13:26.420Z,12.00
2023-01-25T11:15:56.124Z,12.55
2023-01-25T11:18:28.502Z,13.45
2023-01-25T11:21:06.841Z,20.88
2023-01-25T11:23:35.558Z,14.35
2023-01-25T11:26:18.986Z,17.95
2023-01-25T11:28:49.092Z,16.42
2023-01-25T11:31:24.852Z,13.90
2023-01-25T11:33:54.045Z,14.35
2023-01-25T11:36:31.037Z,15.02
2023-01-25T11:39:17.124Z,13.38
2023-01-25T11:41:56.540Z,12.23
2023-01-25T11:44:47.016Z,13.52
2023-01-25T11:47:28.279Z,12.98
2023-01-25T11:50:06.519Z,14.25
2023-01-25T11:52:44.714Z,13.38
2023-01-25T11:55:22.968Z,13.35
2023-01-25T11:58:04.782Z,14.85
2023-01-25T12:01:01.812Z,13.85
2023-01-25T12:04:17.813Z,14.90
2023-01-25T12:06:58.549Z,14.25
2023-01-25T12:09:42.110Z,15.52
2023-01-25T12:12:32.295Z,14.88
2023-01-25T12:15:28.121Z,14.40
2023-01-25T12:18:15.733Z,14.85
2023-01-25T12:21:04.901Z,14.20
2023-01-25T12:23:47.893Z,15.30
2023-01-25T12:26:24.904Z,15.15
2023-01-25T12:29:01.108Z,14.90
2023-01-25T12:31:38.556Z,15.13
2023-01-25T12:34:12.727Z,13.55
2023-01-25T12:36:45.827Z,13.57
2023-01-25T12:39:19.395Z,13.32
2023-01-25T12:41:52.074Z,13.00
2023-01-25T12:44:22.438Z,12.57
2023-01-25T12:46:58.170Z,14.52
2023-01-25T12:49:31.845Z,14.98
2023-01-25T12:52:05.072Z,14.38
2023-01-25T12:54:39.610Z,15.35
2023-01-25T12:57:16.910Z,16.40
2023-01-25T12:59:52.891Z,16.40
2023-01-25T13:02:38.458Z,17.42
2023-01-25T13:05:20.006Z,16.70
2023-01-25T13:07:59.783Z,16.45
2023-01-25T13:10:34.638Z,16.77
2023-01-25T13:13:04.346Z,15.73
2023-01-25T13:15:40.088Z,16.73
2023-01-25T13:18:40.046Z,14.85
2023-01-25T13:21:12.428Z,16.75
2023-01-25T13:23:47.352Z,14.45
2023-01-25T13:26:48.460Z,14.07
2023-01-25T13:29:54.681Z,15.23
2023-01-25T13:32:55.457Z,14.32
2023-01-25T13:35:29.312Z,16.25
2023-01-25T13:38:03.693Z,16.05
2023-01-25T13:40:37.650Z,15.25
2023-01-25T13:43:19.255Z,14.60
2023-01-25T13:45:50.579Z,14.68
2023-01-25T13:48:21.492Z,15.45
2023-01-25T13:50:52.254Z,15.02
2023-01-25T13:53:22.579Z,16.10
2023-01-25T13:55:52.495Z,17.17
2023-01-25T13:58:28.477Z,16.00
2023-01-25T14:00:59.074Z,15.85
2023-01-25T14:03:30.162Z,17.13
2023-01-25T14:06:02.435Z,20.08
2023-01-25T14:08:31.317Z,21.38
2023-01-25T14:10:59.469Z,21.00
2023-01-25T14:13:28.602Z,21.45
2023-01-25T14:15:58.688Z,20.92
2023-01-25T14:18:33.638Z,21.10
2023-01-25T14:21:13.556Z,21.70
2023-01-25T14:23:41.341Z,21.00
2023-01-25T14:26:23.609Z,20.50
2023-01-25T14:29:01.483Z,21.17
2023-01-25T14:31:34.145Z,19.85
2023-01-25T14:34:04.199Z,25.15
2023-01-25T14:36:34.248Z,21.25
2023-01-25T14:39:04.771Z,20.30
2023-01-25T14:41:35.527Z,19.40
2023-01-25T14:44:10.638Z,19.00
2023-01-25T14:46:40.028Z,19.67
2023-01-25T14:49:09.814Z,17.75
2023-01-25T14:51:43.343Z,18.83
2023-01-25T14:54:18.839Z,17.98
2023-01-25T14:59:27.228Z,15.73
2023-01-25T15:01:57.503Z,16.67
2023-01-25T15:04:25.557Z,18.67
2023-01-25T15:06:57.432Z,15.93
2023-01-25T15:09:39.317Z,16.85
2023-01-25T15:12:27.138Z,17.50
2023-01-25T15:14:58.292Z,17.35
2023-01-25T15:17:44.442Z,17.17
2023-01-25T15:20:33.666Z,17.30
2023-01-25T15:23:05.001Z,16.40
2023-01-25T15:25:34.433Z,17.48
2023-01-25T15:28:02.698Z,18.85
2023-01-25T15:30:33.787Z,20.83
2023-01-25T15:33:03.087Z,19.38
2023-01-25T15:35:30.834Z,16.48
2023-01-25T15:38:00.401Z,20.35
2023-01-25T15:40:28.082Z,15.80
2023-01-25T15:42:55.743Z,17.08
2023-01-25T15:45:23.403Z,16.38
2023-01-25T15:47:52.496Z,16.58
2023-01-25T15:50:21.535Z,17.23
2023-01-25T15:52:49.260Z,20.05
2023-01-25T15:55:17.147Z,17.92
2023-01-25T15:57:46.833Z,30.30
2023-01-25T16:00:19.353Z,25.58
2023-01-25T16:02:47.160Z,15.98
2023-01-25T16:05:16.369Z,14.63
2023-01-25T16:07:46.759Z,15.10
2023-01-25T16:10:22.598Z,15.52
2023-01-25T16:12:51.262Z,16.75
2023-01-25T16:15:19.031Z,14.48
2023-01-25T16:17:46.711Z,16.00
2023-01-25T16:20:19.976Z,17.10
2023-01-25T16:22:48.520Z,15.90
2023-01-25T16:25:16.318Z,15.55
2023-01-25T16:27:43.985Z,15.25
2023-01-25T16:30:20.164Z,15.88
2023-01-25T16:32:51.388Z,15.00
2023-01-25T16:35:21.365Z,15.48
2023-01-25T16:37:50.783Z,14.25
2023-01-25T16:40:26.057Z,15.10
2023-01-25T16:42:55.789Z,15.70
2023-01-25T16:45:25.985Z,15.63
2023-01-25T16:47:56.186Z,16.00
2023-01-25T16:50:25.467Z,14.85
2023-01-25T16:52:54.804Z,15.73
2023-01-25T16:55:22.575Z,16.02
2023-01-25T16:57:52.032Z,15.95
2023-01-25T17:00:20.371Z,15.48
2023-01-25T17:02:58.678Z,17.73
2023-01-25T17:05:33.964Z,16.85
2023-01-25T17:08:01.767Z,17.20
2023-01-25T17:10:33.080Z,17.77
2023-01-25T17:13:00.826Z,17.98
2023-01-25T17:15:30.873Z,17.15
2023-01-25T17:17:58.570Z,17.35
2023-01-25T17:20:26.285Z,17.77
2023-01-25T17:22:57.874Z,16.52
2023-01-25T17:25:26.216Z,18.05
2023-01-25T17:27:53.913Z,16.88
2023-01-25T17:30:21.891Z,19.55
2023-01-25T17:32:49.849Z,19.08
2023-01-25T17:35:17.780Z,17.35
2023-01-25T17:37:45.473Z,18.08
2023-01-25T17:40:14.937Z,17.40
2023-01-25T17:42:42.646Z,17.13
2023-01-25T17:45:11.353Z,18.20
2023-01-25T17:47:39.479Z,17.25
2023-01-25T17:50:08.648Z,17.17
2023-01-25T17:52:36.443Z,18.35
2023-01-25T17:55:05.125Z,18.02
2023-01-25T17:57:36.728Z,18.25
2023-01-25T18:00:06.924Z,19.42
2023-01-25T18:02:34.645Z,18.88
2023-01-25T18:05:02.380Z,19.73
2023-01-25T18:07:30.181Z,18.52
2023-01-25T18:09:57.954Z,19.02
2023-01-25T18:12:25.723Z,18.42
2023-01-25T18:14:54.917Z,19.30
2023-01-25T18:17:22.682Z,19.40
2023-01-25T18:19:50.784Z,18.70
2023-01-25T18:22:18.745Z,18.50
2023-01-25T18:24:47.166Z,19.05
2023-01-25T18:27:20.265Z,19.38
2023-01-25T18:29:54.943Z,19.50
2023-01-25T18:32:24.250Z,19.70
2023-01-25T18:34:52.227Z,18.98
2023-01-25T18:37:21.769Z,19.15
2023-01-25T18:39:50.876Z,18.42
2023-01-25T18:42:19.362Z,18.38
2023-01-25T18:44:48.474Z,18.65
2023-01-25T18:47:18.510Z,18.33
2023-01-25T18:49:49.115Z,20.15
2023-01-25T18:52:17.266Z,18.25
2023-01-25T18:54:45.465Z,19.02
2023-01-25T18:57:13.370Z,20.38
2023-01-25T18:59:41.245Z,18.92
2023-01-25T19:02:10.840Z,19.63
2023-01-25T19:04:38.867Z,19.80
2023-01-25T19:07:17.809Z,20.02
2023-01-25T19:09:47.843Z,19.75
2023-01-25T19:12:15.564Z,19.92
2023-01-25T19:14:43.261Z,20.00
2023-01-25T19:17:10.976Z,19.92
2023-01-25T19:19:38.732Z,19.58
2023-01-25T19:22:06.859Z,20.30
2023-01-25T19:24:36.409Z,21.05
2023-01-25T19:27:06.374Z,24.38
2023-01-25T19:29:34.368Z,24.27
2023-01-25T19:32:02.246Z,22.40
2023-01-25T19:34:33.540Z,20.77
2023-01-25T19:37:01.291Z,22.92
2023-01-25T19:39:29.243Z,20.83
2023-01-25T19:41:58.301Z,18.80
2023-01-25T19:44:26.235Z,19.10
2023-01-25T19:46:53.974Z,17.67
2023-01-25T19:49:22.701Z,15.88
2023-01-25T19:51:55.833Z,16.95
2023-01-25T19:54:24.254Z,16.40
2023-01-25T19:56:52.170Z,15.30
2023-01-25T19:59:24.737Z,16.45
2023-01-25T20:01:52.786Z,18.63
2023-01-25T20:04:23.176Z,17.23
2023-01-25T20:06:51.650Z,17.83
2023-01-25T20:09:24.790Z,18.27
2023-01-25T20:11:56.392Z,15.95
2023-01-25T20:14:25.596Z,16.13
2023-01-25T20:16:53.715Z,16.45
2023-01-25T20:19:21.509Z,15.05
2023-01-25T20:21:49.309Z,15.88
2023-01-25T20:24:17.222Z,16.00
2023-01-25T20:26:45.510Z,16.27
2023-01-25T20:29:13.869Z,16.88
2023-01-25T20:31:44.612Z,17.48
2023-01-25T20:34:14.388Z,31.40
2023-01-25T20:36:43.017Z,19.30
2023-01-25T20:39:13.979Z,16.70
2023-01-25T20:41:42.386Z,17.85
2023-01-25T20:44:14.949Z,18.08
2023-01-25T20:46:44.413Z,17.95
2023-01-25T20:49:16.413Z,16.95
2023-01-25T20:51:44.353Z,20.35
2023-01-25T20:54:12.249Z,17.15
2023-01-25T20:56:40.387Z,18.30
2023-01-25T20:59:08.269Z,21.25
2023-01-25T21:01:37.078Z,17.92
2023-01-25T21:04:09.570Z,18.13
2023-01-25T21:06:38.653Z,16.00
2023-01-25T21:09:06.518Z,16.63
2023-01-25T21:11:34.602Z,16.33
2023-01-25T21:14:02.607Z,17.25
2023-01-25T21:16:30.591Z,16.13
2023-01-25T21:19:00.423Z,15.73
2023-01-25T21:21:31.297Z,16.65
2023-01-25T21:24:02.382Z,16.17
2023-01-25T21:26:31.923Z,16.50
2023-01-25T21:29:00.828Z,15.57
2023-01-25T21:31:30.800Z,16.80
2023-01-25T21:34:00.908Z,15.35
2023-01-25T21:36:30.246Z,16.45
2023-01-25T21:38:58.160Z,16.85
2023-01-25T21:41:29.080Z,24.10
2023-01-25T21:44:15.574Z,18.00
2023-01-25T21:46:49.245Z,20.85
2023-01-25T21:49:45.850Z,17.27
2023-01-25T21:52:14.977Z,17.63
2023-01-25T21:54:42.649Z,19.00
2023-01-25T21:57:11.597Z,18.58
2023-01-25T21:59:40.688Z,15.82
2023-01-25T22:02:16.407Z,16.52
2023-01-25T22:04:44.205Z,16.48
2023-01-25T22:07:12.461Z,16.02
2023-01-25T22:09:41.532Z,16.23
2023-01-25T22:12:09.296Z,17.20
2023-01-25T22:14:37.016Z,15.75
2023-01-25T22:17:05.030Z,16.95
2023-01-25T22:19:33.305Z,16.80
2023-01-25T22:22:01.116Z,19.77
2023-01-25T22:24:28.815Z,18.40
2023-01-25T22:27:24.460Z,17.05
2023-01-25T22:29:52.154Z,17.50
2023-01-25T22:32:19.990Z,17.80
2023-01-25T22:34:47.682Z,18.75
2023-01-25T22:37:15.440Z,18.65
2023-01-25T22:39:43.080Z,18.83
2023-01-25T22:42:12.143Z,18.23
2023-01-25T22:44:39.854Z,18.17
2023-01-25T22:47:07.600Z,17.30
2023-01-25T22:49:47.543Z,18.65
2023-01-25T22:52:15.253Z,18.52
2023-01-25T22:54:42.928Z,18.83
2023-01-25T23:01:45.769Z,18.13
2023-01-25T23:04:16.614Z,17.80
2023-01-25T23:06:44.385Z,18.15
2023-01-25T23:09:12.096Z,18.65
2023-01-25T23:11:39.781Z,18.10
2023-01-25T23:14:26.544Z,17.33
2023-01-25T23:17:15.792Z,16.52
2023-01-25T23:19:42.534Z,17.20
2023-01-25T23:22:12.632Z,16.10
2023-01-25T23:24:40.541Z,18.40
2023-01-25T23:27:08.317Z,17.98
2023-01-25T23:29:37.103Z,18.38
2023-01-25T23:32:06.786Z,19.33
2023-01-25T23:34:40.173Z,17.33
2023-01-25T23:37:10.268Z,18.20
2023-01-25T23:39:38.229Z,18.85
2023-01-25T23:42:06.233Z,17.00
2023-01-25T23:44:33.894Z,17.65
2023-01-25T23:47:02.240Z,16.48
2023-01-25T23:49:31.287Z,17.92
2023-01-25T23:51:58.961Z,15.98
2023-01-25T23:54:27.085Z,17.00
2023-01-25T23:56:55.005Z,17.63
2023-01-25T23:59:23.007Z,18.27
